createdAt,value
2022-12-24T00:00:39.720Z,97580.42
2022-12-24T00:05:41.700Z,97572.67
2022-12-24T00:10:44.276Z,97583.44
2022-12-24T00:15:46.132Z,97559.81
2022-12-24T00:20:48.924Z,97554.10
2022-12-24T00:25:50.640Z,97543.05
2022-12-24T00:30:52.607Z,97528.88
2022-12-24T00:35:54.296Z,97531.81
2022-12-24T00:41:01.880Z,97535.59
2022-12-24T00:46:03.695Z,97528.95
2022-12-24T00:51:05.441Z,97533.85
2022-12-24T00:56:08.038Z,97546.79
2022-12-24T01:01:10.201Z,97552.02
2022-12-24T01:06:18.099Z,97557.30
2022-12-24T01:11:19.940Z,97556.63
2022-12-24T01:16:21.771Z,97564.26
2022-12-24T01:21:23.738Z,97563.27
2022-12-24T01:26:25.455Z,97554.41
2022-12-24T01:31:27.147Z,97543.85
2022-12-24T01:36:28.974Z,97539.59
2022-12-24T01:41:51.072Z,97542.34
2022-12-24T01:47:14.428Z,97527.89
2022-12-24T01:52:23.647Z,97519.58
2022-12-24T01:57:30.026Z,97518.02
2022-12-24T02:02:33.449Z,97535.73
2022-12-24T02:07:36.415Z,97527.47
2022-12-24T02:12:39.122Z,97529.05
2022-12-24T02:17:56.867Z,97531.80
2022-12-24T02:23:08.131Z,97523.50
2022-12-24T02:28:38.330Z,97524.41
2022-12-24T02:34:19.521Z,97533.24
2022-12-24T02:39:27.374Z,97523.80
2022-12-24T02:44:31.815Z,97529.89
2022-12-24T02:49:33.516Z,97522.59
2022-12-24T02:54:35.371Z,97527.34
2022-12-24T02:59:58.982Z,97534.69
2022-12-24T03:05:12.558Z,97543.72
2022-12-24T03:10:31.336Z,97547.85
2022-12-24T03:15:34.394Z,97556.05
2022-12-24T03:20:44.250Z,97563.20
2022-12-24T03:25:46.587Z,97567.42
2022-12-24T03:30:48.826Z,97578.26
2022-12-24T03:35:50.497Z,97579.89
2022-12-24T03:40:52.511Z,97586.00
2022-12-24T03:45:54.305Z,97584.16
2022-12-24T03:50:56.153Z,97590.25
2022-12-24T03:55:58.316Z,97597.45
2022-12-24T04:00:59.974Z,97601.62
2022-12-24T04:06:09.977Z,97596.14
2022-12-24T04:11:14.186Z,97593.50
2022-12-24T04:16:17.517Z,97597.45
2022-12-24T04:21:19.540Z,97600.13
2022-12-24T04:26:21.228Z,97598.98
2022-12-24T04:31:23.357Z,97597.52
2022-12-24T04:36:25.161Z,97603.29
2022-12-24T04:41:26.913Z,97600.89
2022-12-24T04:46:32.666Z,97598.42
2022-12-24T04:51:34.395Z,97600.88
2022-12-24T04:56:37.037Z,97599.36
2022-12-24T05:01:38.832Z,97602.35
2022-12-24T05:06:40.663Z,97610.64
2022-12-24T05:11:42.341Z,97612.00
2022-12-24T05:16:44.296Z,97619.89
2022-12-24T05:22:06.153Z,97619.16
2022-12-24T05:27:08.039Z,97617.27
2022-12-24T05:32:09.681Z,97610.36
2022-12-24T05:37:11.366Z,97616.66
2022-12-24T05:42:13.073Z,97621.55
2022-12-24T05:47:14.887Z,97630.51
2022-12-24T05:52:16.676Z,97638.09
2022-12-24T05:57:18.329Z,97637.60
2022-12-24T06:02:19.998Z,97638.03
2022-12-24T06:07:21.673Z,97643.12
2022-12-24T06:12:23.842Z,97652.50
2022-12-24T06:17:25.536Z,97656.61
2022-12-24T06:22:27.442Z,97662.61
2022-12-24T06:27:29.134Z,97670.79
2022-12-24T06:32:30.990Z,97673.36
2022-12-24T06:37:32.723Z,97678.14
2022-12-24T06:42:34.346Z,97685.35
2022-12-24T06:47:36.317Z,97695.20
2022-12-24T06:52:38.588Z,97702.08
2022-12-24T06:57:40.290Z,97704.73
2022-12-24T07:02:43.419Z,97704.01
2022-12-24T07:07:45.534Z,97710.61
2022-12-24T07:12:48.138Z,97709.88
2022-12-24T07:17:49.836Z,97714.65
2022-12-24T07:22:51.602Z,97722.62
2022-12-24T07:27:53.323Z,97733.34
2022-12-24T07:32:55.002Z,97740.30
2022-12-24T07:37:56.778Z,97745.88
2022-12-24T07:42:58.491Z,97750.84
2022-12-24T07:48:00.194Z,97758.42
2022-12-24T07:53:01.848Z,97759.69
2022-12-24T07:58:03.518Z,97764.98
2022-12-24T08:03:05.661Z,97767.99
2022-12-24T08:08:07.693Z,97773.15
2022-12-24T08:13:09.604Z,97776.52
2022-12-24T08:18:11.897Z,97778.83
2022-12-24T08:23:14.316Z,97786.08
2022-12-24T08:28:19.318Z,97787.45
2022-12-24T08:33:22.123Z,97799.04
2022-12-24T08:38:24.366Z,97808.61
2022-12-24T08:43:26.885Z,97812.77
2022-12-24T08:48:28.567Z,97821.55
2022-12-24T08:53:30.218Z,97829.73
2022-12-24T08:58:32.298Z,97841.22
2022-12-24T09:03:34.042Z,97852.71
2022-12-24T09:08:36.623Z,97857.21
2022-12-24T09:13:39.331Z,97863.45
2022-12-24T09:18:41.761Z,97870.91
2022-12-24T09:23:46.844Z,97868.35
2022-12-24T09:28:49.075Z,97867.30
2022-12-24T09:33:51.457Z,97876.37
2022-12-24T09:38:53.378Z,97882.29
2022-12-24T09:44:08.077Z,97895.81
2022-12-24T09:49:22.328Z,97894.81
2022-12-24T09:54:31.946Z,97899.79
2022-12-24T09:59:43.980Z,97908.55
2022-12-24T10:04:47.198Z,97915.98
2022-12-24T10:10:18.033Z,97915.10
2022-12-24T10:15:31.977Z,97917.86
2022-12-24T10:21:16.553Z,97925.56
2022-12-24T10:26:25.858Z,97938.35
2022-12-24T10:31:32.134Z,97947.90
2022-12-24T10:36:33.807Z,97955.92
2022-12-24T10:41:36.781Z,97963.85
2022-12-24T10:46:39.331Z,97967.57
2022-12-24T10:51:55.713Z,97959.80
2022-12-24T10:57:02.350Z,97967.69
2022-12-24T11:02:04.330Z,97974.77
2022-12-24T11:07:16.884Z,97985.83
2022-12-24T11:12:23.556Z,97987.45
2022-12-24T11:17:25.485Z,97996.27
2022-12-24T11:22:30.746Z,98003.58
2022-12-24T11:27:41.708Z,98007.34
2022-12-24T11:32:46.050Z,98017.90
2022-12-24T11:38:00.293Z,98026.51
2022-12-24T11:43:03.859Z,98045.85
2022-12-24T11:48:25.535Z,98053.59
2022-12-24T11:53:36.273Z,98055.42
2022-12-24T11:58:54.966Z,98057.54
2022-12-24T12:04:10.869Z,98075.05
2022-12-24T12:09:18.188Z,98093.96
2022-12-24T12:14:30.302Z,98102.98
2022-12-24T12:19:42.517Z,98113.77
2022-12-24T12:24:50.947Z,98124.70
2022-12-24T12:30:00.200Z,98135.15
2022-12-24T12:35:15.761Z,98134.20
2022-12-24T12:40:18.814Z,98133.86
2022-12-24T12:45:43.290Z,98138.63
2022-12-24T12:51:08.016Z,98141.73
2022-12-24T12:56:30.319Z,98150.30
2022-12-24T13:02:17.492Z,98161.64
2022-12-24T13:07:37.502Z,98169.70
2022-12-24T13:13:07.724Z,98190.34
2022-12-24T13:18:34.349Z,98201.98
2022-12-24T13:23:36.141Z,98211.92
2022-12-24T13:28:38.725Z,98215.10
2022-12-24T13:33:40.452Z,98223.45
2022-12-24T13:38:52.528Z,98239.67
2022-12-24T13:44:06.374Z,98250.69
2022-12-24T13:49:17.754Z,98260.23
2022-12-24T13:54:25.681Z,98273.31
2022-12-24T13:59:38.983Z,98280.38
2022-12-24T14:04:42.449Z,98289.78
2022-12-24T14:09:50.220Z,98299.39
2022-12-24T14:14:51.959Z,98308.79
2022-12-24T14:20:02.464Z,98308.25
2022-12-24T14:25:12.406Z,98314.61
2022-12-24T14:30:19.638Z,98319.45
2022-12-24T14:35:26.474Z,98330.28
2022-12-24T14:40:30.949Z,98333.81
2022-12-24T14:45:41.941Z,98344.75
2022-12-24T14:50:59.761Z,98353.84
2022-12-24T14:56:14.505Z,98361.48
2022-12-24T15:01:24.401Z,98366.21
2022-12-24T15:06:27.242Z,98373.74
2022-12-24T15:11:29.383Z,98378.52
2022-12-24T15:16:35.319Z,98389.77
2022-12-24T15:21:44.005Z,98395.13
2022-12-24T15:26:45.741Z,98404.13
2022-12-24T15:31:53.446Z,98417.86
2022-12-24T15:37:04.749Z,98424.69
2022-12-24T15:42:15.077Z,98429.23
2022-12-24T15:47:21.032Z,98435.89
2022-12-24T15:52:24.977Z,98444.00
2022-12-24T15:57:31.743Z,98448.79
2022-12-24T16:02:40.699Z,98455.52
2022-12-24T16:08:05.362Z,98464.67
2022-12-24T16:13:23.702Z,98470.30
2022-12-24T16:18:56.198Z,98468.02
2022-12-24T16:24:06.347Z,98484.23
2022-12-24T16:29:10.115Z,98487.72
2022-12-24T16:34:17.228Z,98491.36
2022-12-24T16:39:23.303Z,98494.05
2022-12-24T16:44:25.003Z,98500.90
2022-12-24T16:49:27.345Z,98505.48
2022-12-24T16:54:30.122Z,98514.59
2022-12-24T16:59:32.695Z,98517.66
2022-12-24T17:04:35.162Z,98526.85
2022-12-24T17:09:36.953Z,98530.59
2022-12-24T17:14:39.761Z,98535.30
2022-12-24T17:19:41.487Z,98535.11
2022-12-24T17:24:44.056Z,98537.52
2022-12-24T17:29:46.100Z,98543.19
2022-12-24T17:34:47.783Z,98546.08
2022-12-24T17:39:49.457Z,98549.00
2022-12-24T17:44:51.191Z,98550.48
2022-12-24T17:49:53.041Z,98552.42
2022-12-24T17:54:54.968Z,98553.91
2022-12-24T17:59:57.443Z,98555.20
2022-12-24T18:04:59.320Z,98560.34
2022-12-24T18:10:01.073Z,98568.48
2022-12-24T18:15:02.803Z,98576.23
2022-12-24T18:20:05.364Z,98586.09
2022-12-24T18:25:07.667Z,98590.79
2022-12-24T18:30:10.420Z,98591.08
2022-12-24T18:35:12.247Z,98594.03
2022-12-24T18:40:14.109Z,98604.33
2022-12-24T18:45:15.951Z,98614.05
2022-12-24T18:50:17.630Z,98620.40
2022-12-24T18:55:19.301Z,98618.66
2022-12-24T19:00:21.018Z,98635.77
2022-12-24T19:05:22.824Z,98637.45
2022-12-24T19:10:24.619Z,98641.71
2022-12-24T19:15:30.806Z,98653.16
2022-12-24T19:20:39.684Z,98660.45
2022-12-24T19:25:41.396Z,98659.80
2022-12-24T19:30:43.316Z,98664.13
2022-12-24T19:35:45.081Z,98668.60
2022-12-24T19:40:46.822Z,98659.02
2022-12-24T19:45:48.566Z,98659.55
2022-12-24T19:50:50.865Z,98662.66
2022-12-24T19:55:52.730Z,98669.11
2022-12-24T20:00:54.616Z,98678.02
2022-12-24T20:05:56.376Z,98685.09
2022-12-24T20:10:58.081Z,98689.02
2022-12-24T20:16:05.775Z,98686.86
2022-12-24T20:21:08.850Z,98689.45
2022-12-24T20:26:13.632Z,98694.44
2022-12-24T20:31:21.773Z,98702.08
2022-12-24T20:36:25.103Z,98705.28
2022-12-24T20:41:29.019Z,98707.77
2022-12-24T20:46:31.181Z,98711.10
2022-12-24T20:51:33.035Z,98708.77
2022-12-24T20:56:34.682Z,98708.77
2022-12-24T21:01:36.452Z,98719.79
2022-12-24T21:06:39.574Z,98729.98
2022-12-24T21:11:50.180Z,98741.02
2022-12-24T21:16:54.227Z,98748.13
2022-12-24T21:21:55.995Z,98760.77
2022-12-24T21:26:57.783Z,98767.30
2022-12-24T21:31:59.491Z,98764.54
2022-12-24T21:37:01.238Z,98769.24
2022-12-24T21:42:03.255Z,98772.10
2022-12-24T21:47:04.973Z,98773.27
2022-12-24T21:52:06.672Z,98776.25
2022-12-24T21:57:28.007Z,98778.81
2022-12-24T22:02:29.862Z,98782.24
2022-12-24T22:07:50.597Z,98780.68
2022-12-24T22:13:00.261Z,98778.90
2022-12-24T22:18:02.320Z,98782.30
2022-12-24T22:23:04.278Z,98793.73
2022-12-24T22:28:06.410Z,98797.99
2022-12-24T22:33:09.733Z,98798.92
2022-12-24T22:38:11.624Z,98797.30
2022-12-24T22:43:13.277Z,98800.31
2022-12-24T22:48:19.532Z,98797.24
2022-12-24T22:53:21.470Z,98794.14
2022-12-24T22:58:23.850Z,98795.72
2022-12-24T23:03:26.237Z,98800.95
2022-12-24T23:08:29.046Z,98799.55
2022-12-24T23:13:49.534Z,98802.34
2022-12-24T23:18:51.299Z,98810.66
2022-12-24T23:23:53.461Z,98808.54
2022-12-24T23:28:56.108Z,98814.31
2022-12-24T23:33:57.891Z,98814.57
2022-12-24T23:38:59.747Z,98818.69
2022-12-24T23:44:01.555Z,98820.70
2022-12-24T23:49:03.381Z,98811.69
2022-12-24T23:54:05.074Z,98817.59
2022-12-24T23:59:06.810Z,98825.46
